sensor_id;sensor_type;location;lat;lon;timestamp;temperature;humidity
42979;DHT22;28616;44.746;19.678;2023-04-09T00:02:22;3.90;99.90
42979;DHT22;28616;44.746;19.678;2023-04-09T00:04:48;3.80;99.90
42979;DHT22;28616;44.746;19.678;2023-04-09T00:07:13;3.70;99.90
42979;DHT22;28616;44.746;19.678;2023-04-09T00:09:39;3.70;99.90
42979;DHT22;28616;44.746;19.678;2023-04-09T00:12:05;3.70;99.90
42979;DHT22;28616;44.746;19.678;2023-04-09T00:14:31;3.80;99.90
42979;DHT22;28616;44.746;19.678;2023-04-09T00:16:57;3.70;99.90
42979;DHT22;28616;44.746;19.678;2023-04-09T00:19:23;3.70;99.90
42979;DHT22;28616;44.746;19.678;2023-04-09T00:21:48;3.60;99.90
42979;DHT22;28616;44.746;19.678;2023-04-09T00:24:14;3.60;99.90
42979;DHT22;28616;44.746;19.678;2023-04-09T00:26:40;3.60;99.90
42979;DHT22;28616;44.746;19.678;2023-04-09T00:29:06;3.50;99.90
42979;DHT22;28616;44.746;19.678;2023-04-09T00:31:31;3.60;99.90
42979;DHT22;28616;44.746;19.678;2023-04-09T00:33:57;3.60;99.90
42979;DHT22;28616;44.746;19.678;2023-04-09T00:36:23;3.60;99.90
42979;DHT22;28616;44.746;19.678;2023-04-09T00:38:49;3.70;99.90
42979;DHT22;28616;44.746;19.678;2023-04-09T00:41:16;3.70;99.90
42979;DHT22;28616;44.746;19.678;2023-04-09T00:43:42;3.60;99.90
42979;DHT22;28616;44.746;19.678;2023-04-09T00:46:08;3.60;99.90
42979;DHT22;28616;44.746;19.678;2023-04-09T00:48:34;3.60;99.90
42979;DHT22;28616;44.746;19.678;2023-04-09T00:51:00;3.70;99.90
42979;DHT22;28616;44.746;19.678;2023-04-09T00:53:25;3.70;99.90
42979;DHT22;28616;44.746;19.678;2023-04-09T00:55:52;3.70;99.90
42979;DHT22;28616;44.746;19.678;2023-04-09T00:58:19;3.70;99.90
42979;DHT22;28616;44.746;19.678;2023-04-09T01:00:45;3.70;99.90
42979;DHT22;28616;44.746;19.678;2023-04-09T01:03:11;3.60;99.90
42979;DHT22;28616;44.746;19.678;2023-04-09T01:05:49;3.70;99.90
42979;DHT22;28616;44.746;19.678;2023-04-09T01:09:08;3.80;99.90
42979;DHT22;28616;44.746;19.678;2023-04-09T01:14:07;3.70;99.90
42979;DHT22;28616;44.746;19.678;2023-04-09T01:16:36;3.60;99.90
42979;DHT22;28616;44.746;19.678;2023-04-09T01:19:15;3.60;99.90
42979;DHT22;28616;44.746;19.678;2023-04-09T01:21:46;3.50;99.90
42979;DHT22;28616;44.746;19.678;2023-04-09T01:24:33;3.50;99.90
42979;DHT22;28616;44.746;19.678;2023-04-09T01:27:06;3.60;99.90
42979;DHT22;28616;44.746;19.678;2023-04-09T01:29:38;3.50;99.90
42979;DHT22;28616;44.746;19.678;2023-04-09T01:32:06;3.50;99.90
42979;DHT22;28616;44.746;19.678;2023-04-09T01:34:32;3.50;99.90
42979;DHT22;28616;44.746;19.678;2023-04-09T01:37:01;3.50;99.90
42979;DHT22;28616;44.746;19.678;2023-04-09T01:39:28;3.60;99.90
42979;DHT22;28616;44.746;19.678;2023-04-09T01:41:54;3.60;99.90
42979;DHT22;28616;44.746;19.678;2023-04-09T01:44:23;3.70;99.90
42979;DHT22;28616;44.746;19.678;2023-04-09T01:46:53;3.80;99.90
42979;DHT22;28616;44.746;19.678;2023-04-09T01:49:19;3.80;99.90
42979;DHT22;28616;44.746;19.678;2023-04-09T01:51:46;3.90;99.90
42979;DHT22;28616;44.746;19.678;2023-04-09T01:54:12;3.80;99.90
42979;DHT22;28616;44.746;19.678;2023-04-09T01:56:44;3.80;99.90
42979;DHT22;28616;44.746;19.678;2023-04-09T01:59:10;3.90;99.90
42979;DHT22;28616;44.746;19.678;2023-04-09T02:01:49;3.90;99.90
42979;DHT22;28616;44.746;19.678;2023-04-09T02:04:32;3.80;99.90
42979;DHT22;28616;44.746;19.678;2023-04-09T02:07:23;3.90;99.90
42979;DHT22;28616;44.746;19.678;2023-04-09T02:09:52;3.80;99.90
42979;DHT22;28616;44.746;19.678;2023-04-09T02:12:19;3.80;99.90
42979;DHT22;28616;44.746;19.678;2023-04-09T02:14:45;3.70;99.90
42979;DHT22;28616;44.746;19.678;2023-04-09T02:17:12;3.70;99.90
42979;DHT22;28616;44.746;19.678;2023-04-09T02:19:43;3.70;99.90
42979;DHT22;28616;44.746;19.678;2023-04-09T02:22:10;3.70;99.90
42979;DHT22;28616;44.746;19.678;2023-04-09T02:24:37;3.60;99.90
42979;DHT22;28616;44.746;19.678;2023-04-09T02:27:03;3.60;99.90
42979;DHT22;28616;44.746;19.678;2023-04-09T02:29:30;3.60;99.90
42979;DHT22;28616;44.746;19.678;2023-04-09T02:31:56;3.60;99.90
42979;DHT22;28616;44.746;19.678;2023-04-09T02:34:22;3.60;99.90
42979;DHT22;28616;44.746;19.678;2023-04-09T02:36:48;3.70;99.90
42979;DHT22;28616;44.746;19.678;2023-04-09T02:39:14;3.70;99.90
42979;DHT22;28616;44.746;19.678;2023-04-09T02:41:40;3.70;99.90
42979;DHT22;28616;44.746;19.678;2023-04-09T02:44:06;3.70;99.90
42979;DHT22;28616;44.746;19.678;2023-04-09T02:46:32;3.80;99.90
42979;DHT22;28616;44.746;19.678;2023-04-09T02:48:57;3.70;99.90
42979;DHT22;28616;44.746;19.678;2023-04-09T02:51:23;3.80;99.90
42979;DHT22;28616;44.746;19.678;2023-04-09T02:53:49;3.70;99.90
42979;DHT22;28616;44.746;19.678;2023-04-09T02:56:15;3.50;99.90
42979;DHT22;28616;44.746;19.678;2023-04-09T02:58:40;3.50;99.90
42979;DHT22;28616;44.746;19.678;2023-04-09T03:01:06;3.40;99.90
42979;DHT22;28616;44.746;19.678;2023-04-09T03:03:32;3.40;99.90
42979;DHT22;28616;44.746;19.678;2023-04-09T03:05:57;3.40;99.90
42979;DHT22;28616;44.746;19.678;2023-04-09T03:08:23;3.40;99.90
42979;DHT22;28616;44.746;19.678;2023-04-09T03:10:49;3.30;99.90
42979;DHT22;28616;44.746;19.678;2023-04-09T03:13:15;3.30;99.90
42979;DHT22;28616;44.746;19.678;2023-04-09T03:15:40;3.30;99.90
42979;DHT22;28616;44.746;19.678;2023-04-09T03:18:06;3.30;99.90
42979;DHT22;28616;44.746;19.678;2023-04-09T03:20:32;3.30;99.90
42979;DHT22;28616;44.746;19.678;2023-04-09T03:22:58;3.20;99.90
42979;DHT22;28616;44.746;19.678;2023-04-09T03:25:23;3.20;99.90
42979;DHT22;28616;44.746;19.678;2023-04-09T03:27:49;3.20;99.90
42979;DHT22;28616;44.746;19.678;2023-04-09T03:30:15;3.20;99.90
42979;DHT22;28616;44.746;19.678;2023-04-09T03:32:41;3.20;99.90
42979;DHT22;28616;44.746;19.678;2023-04-09T03:35:07;3.10;99.90
42979;DHT22;28616;44.746;19.678;2023-04-09T03:37:32;3.00;99.90
42979;DHT22;28616;44.746;19.678;2023-04-09T03:39:58;3.00;99.90
42979;DHT22;28616;44.746;19.678;2023-04-09T03:42:24;3.00;99.90
42979;DHT22;28616;44.746;19.678;2023-04-09T03:44:52;3.00;99.90
42979;DHT22;28616;44.746;19.678;2023-04-09T03:47:18;3.00;99.90
42979;DHT22;28616;44.746;19.678;2023-04-09T03:49:44;3.00;99.90
42979;DHT22;28616;44.746;19.678;2023-04-09T03:52:10;3.00;99.90
42979;DHT22;28616;44.746;19.678;2023-04-09T03:54:35;3.00;99.90
42979;DHT22;28616;44.746;19.678;2023-04-09T03:57:01;3.00;99.90
42979;DHT22;28616;44.746;19.678;2023-04-09T03:59:28;3.00;99.90
42979;DHT22;28616;44.746;19.678;2023-04-09T04:01:54;3.00;99.90
42979;DHT22;28616;44.746;19.678;2023-04-09T04:04:20;3.00;99.90
42979;DHT22;28616;44.746;19.678;2023-04-09T04:06:46;2.90;99.90
42979;DHT22;28616;44.746;19.678;2023-04-09T04:09:11;2.90;99.90
42979;DHT22;28616;44.746;19.678;2023-04-09T04:11:37;2.90;99.90
42979;DHT22;28616;44.746;19.678;2023-04-09T04:14:08;2.90;99.90
42979;DHT22;28616;44.746;19.678;2023-04-09T04:16:40;3.00;99.90
42979;DHT22;28616;44.746;19.678;2023-04-09T04:19:08;3.00;99.90
42979;DHT22;28616;44.746;19.678;2023-04-09T04:21:33;3.00;99.90
42979;DHT22;28616;44.746;19.678;2023-04-09T04:23:59;3.10;99.90
42979;DHT22;28616;44.746;19.678;2023-04-09T04:26:25;3.10;99.90
42979;DHT22;28616;44.746;19.678;2023-04-09T04:28:51;3.10;99.90
42979;DHT22;28616;44.746;19.678;2023-04-09T04:31:16;3.10;99.90
42979;DHT22;28616;44.746;19.678;2023-04-09T04:33:42;3.20;99.90
42979;DHT22;28616;44.746;19.678;2023-04-09T04:36:10;3.20;99.90
42979;DHT22;28616;44.746;19.678;2023-04-09T04:38:37;3.20;99.90
42979;DHT22;28616;44.746;19.678;2023-04-09T04:41:03;3.20;99.90
42979;DHT22;28616;44.746;19.678;2023-04-09T04:43:29;3.30;99.90
42979;DHT22;28616;44.746;19.678;2023-04-09T04:45:55;3.30;99.90
42979;DHT22;28616;44.746;19.678;2023-04-09T04:48:21;3.40;99.90
42979;DHT22;28616;44.746;19.678;2023-04-09T04:50:54;3.40;99.90
42979;DHT22;28616;44.746;19.678;2023-04-09T04:53:20;3.50;99.90
42979;DHT22;28616;44.746;19.678;2023-04-09T04:55:46;3.50;99.90
42979;DHT22;28616;44.746;19.678;2023-04-09T04:58:11;3.50;99.90
42979;DHT22;28616;44.746;19.678;2023-04-09T05:00:37;3.50;99.90
42979;DHT22;28616;44.746;19.678;2023-04-09T05:03:03;3.60;99.90
42979;DHT22;28616;44.746;19.678;2023-04-09T05:05:28;3.60;99.90
42979;DHT22;28616;44.746;19.678;2023-04-09T05:07:54;3.70;99.90
42979;DHT22;28616;44.746;19.678;2023-04-09T05:10:20;3.70;99.90
42979;DHT22;28616;44.746;19.678;2023-04-09T05:12:46;3.80;99.90
42979;DHT22;28616;44.746;19.678;2023-04-09T05:15:11;3.80;99.90
42979;DHT22;28616;44.746;19.678;2023-04-09T05:17:37;3.80;99.90
42979;DHT22;28616;44.746;19.678;2023-04-09T05:20:03;4.00;99.90
42979;DHT22;28616;44.746;19.678;2023-04-09T05:22:29;4.00;99.90
42979;DHT22;28616;44.746;19.678;2023-04-09T05:24:55;4.10;99.90
42979;DHT22;28616;44.746;19.678;2023-04-09T05:27:20;4.10;99.90
42979;DHT22;28616;44.746;19.678;2023-04-09T05:29:48;4.10;99.90
42979;DHT22;28616;44.746;19.678;2023-04-09T05:32:14;4.20;99.90
42979;DHT22;28616;44.746;19.678;2023-04-09T05:34:40;4.20;99.90
42979;DHT22;28616;44.746;19.678;2023-04-09T05:37:06;4.30;99.90
42979;DHT22;28616;44.746;19.678;2023-04-09T05:39:32;4.40;99.90
42979;DHT22;28616;44.746;19.678;2023-04-09T05:41:57;4.50;99.90
42979;DHT22;28616;44.746;19.678;2023-04-09T05:44:23;4.40;99.90
42979;DHT22;28616;44.746;19.678;2023-04-09T05:46:49;4.40;99.90
42979;DHT22;28616;44.746;19.678;2023-04-09T05:49:15;4.40;99.90
42979;DHT22;28616;44.746;19.678;2023-04-09T05:51:40;4.50;99.90
42979;DHT22;28616;44.746;19.678;2023-04-09T05:54:07;4.60;99.90
42979;DHT22;28616;44.746;19.678;2023-04-09T05:56:34;4.70;99.90
42979;DHT22;28616;44.746;19.678;2023-04-09T05:58:59;4.80;99.90
42979;DHT22;28616;44.746;19.678;2023-04-09T06:01:25;4.90;99.90
42979;DHT22;28616;44.746;19.678;2023-04-09T06:03:51;5.00;99.90
42979;DHT22;28616;44.746;19.678;2023-04-09T06:06:17;5.10;99.90
42979;DHT22;28616;44.746;19.678;2023-04-09T06:08:43;5.30;99.90
42979;DHT22;28616;44.746;19.678;2023-04-09T06:11:10;5.50;99.90
42979;DHT22;28616;44.746;19.678;2023-04-09T06:13:37;5.70;99.90
42979;DHT22;28616;44.746;19.678;2023-04-09T06:16:04;5.90;99.90
42979;DHT22;28616;44.746;19.678;2023-04-09T06:18:30;6.00;99.90
42979;DHT22;28616;44.746;19.678;2023-04-09T06:21:02;6.20;99.90
42979;DHT22;28616;44.746;19.678;2023-04-09T06:23:28;6.50;99.90
42979;DHT22;28616;44.746;19.678;2023-04-09T06:25:54;6.60;99.90
42979;DHT22;28616;44.746;19.678;2023-04-09T06:28:20;6.80;99.90
42979;DHT22;28616;44.746;19.678;2023-04-09T06:30:46;6.90;99.90
42979;DHT22;28616;44.746;19.678;2023-04-09T06:33:13;7.10;99.90
42979;DHT22;28616;44.746;19.678;2023-04-09T06:35:39;7.10;99.90
42979;DHT22;28616;44.746;19.678;2023-04-09T06:38:04;7.10;99.90
42979;DHT22;28616;44.746;19.678;2023-04-09T06:40:31;7.20;99.90
42979;DHT22;28616;44.746;19.678;2023-04-09T06:42:57;7.20;99.90
42979;DHT22;28616;44.746;19.678;2023-04-09T06:45:22;7.30;99.90
42979;DHT22;28616;44.746;19.678;2023-04-09T06:47:48;7.40;99.90
42979;DHT22;28616;44.746;19.678;2023-04-09T06:50:14;7.30;99.90
42979;DHT22;28616;44.746;19.678;2023-04-09T06:52:40;7.50;99.90
42979;DHT22;28616;44.746;19.678;2023-04-09T06:55:06;7.60;99.90
42979;DHT22;28616;44.746;19.678;2023-04-09T06:57:32;7.90;99.90
42979;DHT22;28616;44.746;19.678;2023-04-09T06:59:58;8.00;99.90
42979;DHT22;28616;44.746;19.678;2023-04-09T07:02:23;8.10;99.90
42979;DHT22;28616;44.746;19.678;2023-04-09T07:04:49;8.20;99.90
42979;DHT22;28616;44.746;19.678;2023-04-09T07:07:15;8.40;99.90
42979;DHT22;28616;44.746;19.678;2023-04-09T07:09:41;8.60;99.90
42979;DHT22;28616;44.746;19.678;2023-04-09T07:12:07;8.80;99.90
42979;DHT22;28616;44.746;19.678;2023-04-09T07:14:33;8.90;99.90
42979;DHT22;28616;44.746;19.678;2023-04-09T07:16:58;9.00;99.90
42979;DHT22;28616;44.746;19.678;2023-04-09T07:19:24;9.10;99.90
42979;DHT22;28616;44.746;19.678;2023-04-09T07:21:50;9.30;99.90
42979;DHT22;28616;44.746;19.678;2023-04-09T07:24:16;9.40;99.90
42979;DHT22;28616;44.746;19.678;2023-04-09T07:26:42;9.50;99.90
42979;DHT22;28616;44.746;19.678;2023-04-09T07:29:08;9.50;99.90
42979;DHT22;28616;44.746;19.678;2023-04-09T07:31:34;9.60;99.90
42979;DHT22;28616;44.746;19.678;2023-04-09T07:34:00;9.70;99.90
42979;DHT22;28616;44.746;19.678;2023-04-09T07:36:26;9.70;99.90
42979;DHT22;28616;44.746;19.678;2023-04-09T07:38:52;9.80;99.90
42979;DHT22;28616;44.746;19.678;2023-04-09T07:41:18;10.00;99.90
42979;DHT22;28616;44.746;19.678;2023-04-09T07:43:44;10.10;99.90
42979;DHT22;28616;44.746;19.678;2023-04-09T07:46:10;10.40;99.90
42979;DHT22;28616;44.746;19.678;2023-04-09T07:48:36;10.50;99.90
42979;DHT22;28616;44.746;19.678;2023-04-09T07:51:01;10.40;99.90
42979;DHT22;28616;44.746;19.678;2023-04-09T07:53:30;10.50;99.90
42979;DHT22;28616;44.746;19.678;2023-04-09T07:55:56;10.80;99.90
42979;DHT22;28616;44.746;19.678;2023-04-09T07:58:21;11.20;99.90
42979;DHT22;28616;44.746;19.678;2023-04-09T08:00:47;10.90;99.90
42979;DHT22;28616;44.746;19.678;2023-04-09T08:03:13;11.00;99.90
42979;DHT22;28616;44.746;19.678;2023-04-09T08:05:39;11.50;99.90
42979;DHT22;28616;44.746;19.678;2023-04-09T08:08:07;11.50;99.90
42979;DHT22;28616;44.746;19.678;2023-04-09T08:10:42;11.80;99.90
42979;DHT22;28616;44.746;19.678;2023-04-09T08:27:46;12.10;99.90
42979;DHT22;28616;44.746;19.678;2023-04-09T08:30:12;12.00;99.90
42979;DHT22;28616;44.746;19.678;2023-04-09T08:32:38;11.90;99.90
42979;DHT22;28616;44.746;19.678;2023-04-09T08:35:04;12.00;99.90
42979;DHT22;28616;44.746;19.678;2023-04-09T08:37:33;11.80;99.90
42979;DHT22;28616;44.746;19.678;2023-04-09T08:39:59;11.90;99.90
42979;DHT22;28616;44.746;19.678;2023-04-09T08:42:33;12.10;99.90
42979;DHT22;28616;44.746;19.678;2023-04-09T08:45:05;12.50;99.90
42979;DHT22;28616;44.746;19.678;2023-04-09T08:47:38;13.00;99.90
42979;DHT22;28616;44.746;19.678;2023-04-09T08:50:05;13.00;99.90
42979;DHT22;28616;44.746;19.678;2023-04-09T08:53:10;13.30;99.10
42979;DHT22;28616;44.746;19.678;2023-04-09T08:55:39;13.20;98.30
42979;DHT22;28616;44.746;19.678;2023-04-09T08:58:11;13.60;96.50
42979;DHT22;28616;44.746;19.678;2023-04-09T09:00:48;13.60;94.80
42979;DHT22;28616;44.746;19.678;2023-04-09T09:03:14;14.10;94.40
42979;DHT22;28616;44.746;19.678;2023-04-09T09:06:03;13.80;91.30
42979;DHT22;28616;44.746;19.678;2023-04-09T09:08:28;14.10;92.60
42979;DHT22;28616;44.746;19.678;2023-04-09T09:11:02;14.10;88.30
42979;DHT22;28616;44.746;19.678;2023-04-09T09:13:28;14.40;90.50
42979;DHT22;28616;44.746;19.678;2023-04-09T09:16:11;14.30;83.40
42979;DHT22;28616;44.746;19.678;2023-04-09T09:18:39;14.30;84.10
42979;DHT22;28616;44.746;19.678;2023-04-09T09:21:21;14.20;83.80
42979;DHT22;28616;44.746;19.678;2023-04-09T09:23:47;14.30;84.80
42979;DHT22;28616;44.746;19.678;2023-04-09T09:26:28;14.20;83.20
42979;DHT22;28616;44.746;19.678;2023-04-09T09:28:57;14.50;83.60
42979;DHT22;28616;44.746;19.678;2023-04-09T09:31:28;14.80;85.00
42979;DHT22;28616;44.746;19.678;2023-04-09T09:33:54;14.50;77.90
42979;DHT22;28616;44.746;19.678;2023-04-09T09:36:38;14.70;81.20
42979;DHT22;28616;44.746;19.678;2023-04-09T09:39:03;14.30;79.70
42979;DHT22;28616;44.746;19.678;2023-04-09T09:41:34;14.30;80.50
42979;DHT22;28616;44.746;19.678;2023-04-09T09:44:06;14.10;81.60
42979;DHT22;28616;44.746;19.678;2023-04-09T09:46:37;14.40;78.90
42979;DHT22;28616;44.746;19.678;2023-04-09T09:49:07;14.20;78.20
42979;DHT22;28616;44.746;19.678;2023-04-09T09:51:38;14.30;76.40
42979;DHT22;28616;44.746;19.678;2023-04-09T09:54:11;14.60;79.20
42979;DHT22;28616;44.746;19.678;2023-04-09T09:56:38;14.70;75.00
42979;DHT22;28616;44.746;19.678;2023-04-09T09:59:28;14.60;76.40
42979;DHT22;28616;44.746;19.678;2023-04-09T10:02:03;15.00;75.50
42979;DHT22;28616;44.746;19.678;2023-04-09T10:04:33;15.10;74.90
42979;DHT22;28616;44.746;19.678;2023-04-09T10:07:00;15.40;71.60
42979;DHT22;28616;44.746;19.678;2023-04-09T10:09:29;15.50;70.20
42979;DHT22;28616;44.746;19.678;2023-04-09T10:11:59;15.20;69.10
42979;DHT22;28616;44.746;19.678;2023-04-09T10:14:25;15.40;69.10
42979;DHT22;28616;44.746;19.678;2023-04-09T10:16:54;15.30;72.10
42979;DHT22;28616;44.746;19.678;2023-04-09T10:19:31;15.90;70.00
42979;DHT22;28616;44.746;19.678;2023-04-09T10:22:12;15.60;68.20
42979;DHT22;28616;44.746;19.678;2023-04-09T10:24:39;15.40;68.30
42979;DHT22;28616;44.746;19.678;2023-04-09T10:27:15;15.40;68.60
42979;DHT22;28616;44.746;19.678;2023-04-09T10:29:46;14.40;68.10
42979;DHT22;28616;44.746;19.678;2023-04-09T10:32:19;14.40;69.40
42979;DHT22;28616;44.746;19.678;2023-04-09T10:34:45;14.50;69.70
42979;DHT22;28616;44.746;19.678;2023-04-09T10:37:19;14.40;72.20
42979;DHT22;28616;44.746;19.678;2023-04-09T10:39:46;14.80;70.90
42979;DHT22;28616;44.746;19.678;2023-04-09T10:42:17;15.20;70.00
42979;DHT22;28616;44.746;19.678;2023-04-09T10:44:43;15.90;66.20
42979;DHT22;28616;44.746;19.678;2023-04-09T10:47:10;16.00;63.60
42979;DHT22;28616;44.746;19.678;2023-04-09T10:49:41;15.70;64.60
42979;DHT22;28616;44.746;19.678;2023-04-09T10:52:09;15.50;63.50
42979;DHT22;28616;44.746;19.678;2023-04-09T10:54:37;16.20;59.60
42979;DHT22;28616;44.746;19.678;2023-04-09T10:59:36;16.00;63.20
42979;DHT22;28616;44.746;19.678;2023-04-09T11:02:06;16.00;59.20
42979;DHT22;28616;44.746;19.678;2023-04-09T11:04:46;15.90;59.20
42979;DHT22;28616;44.746;19.678;2023-04-09T11:07:17;15.90;60.90
42979;DHT22;28616;44.746;19.678;2023-04-09T11:09:43;15.30;60.50
42979;DHT22;28616;44.746;19.678;2023-04-09T11:12:12;14.70;60.20
42979;DHT22;28616;44.746;19.678;2023-04-09T11:14:38;14.60;62.90
42979;DHT22;28616;44.746;19.678;2023-04-09T11:17:04;14.10;60.00
42979;DHT22;28616;44.746;19.678;2023-04-09T11:19:32;14.30;62.30
42979;DHT22;28616;44.746;19.678;2023-04-09T11:22:03;14.40;61.50
42979;DHT22;28616;44.746;19.678;2023-04-09T11:24:41;14.60;61.40
42979;DHT22;28616;44.746;19.678;2023-04-09T11:27:07;14.70;63.70
42979;DHT22;28616;44.746;19.678;2023-04-09T11:29:34;15.00;62.70
42979;DHT22;28616;44.746;19.678;2023-04-09T11:32:01;15.20;61.00
42979;DHT22;28616;44.746;19.678;2023-04-09T11:34:30;15.60;59.70
42979;DHT22;28616;44.746;19.678;2023-04-09T11:36:56;15.40;60.70
42979;DHT22;28616;44.746;19.678;2023-04-09T11:39:27;15.90;61.10
42979;DHT22;28616;44.746;19.678;2023-04-09T11:41:53;16.50;57.50
42979;DHT22;28616;44.746;19.678;2023-04-09T11:44:21;17.20;55.50
42979;DHT22;28616;44.746;19.678;2023-04-09T11:46:48;17.00;54.60
42979;DHT22;28616;44.746;19.678;2023-04-09T11:49:15;16.40;55.40
42979;DHT22;28616;44.746;19.678;2023-04-09T11:51:41;15.70;57.80
42979;DHT22;28616;44.746;19.678;2023-04-09T11:54:07;15.00;58.00
42979;DHT22;28616;44.746;19.678;2023-04-09T11:56:34;14.90;59.70
42979;DHT22;28616;44.746;19.678;2023-04-09T11:59:03;14.50;60.10
42979;DHT22;28616;44.746;19.678;2023-04-09T12:01:32;14.30;60.30
42979;DHT22;28616;44.746;19.678;2023-04-09T12:03:59;14.20;62.80
42979;DHT22;28616;44.746;19.678;2023-04-09T12:06:26;14.20;63.90
42979;DHT22;28616;44.746;19.678;2023-04-09T12:08:56;13.90;66.90
42979;DHT22;28616;44.746;19.678;2023-04-09T12:11:31;13.80;68.40
42979;DHT22;28616;44.746;19.678;2023-04-09T12:14:04;13.50;69.00
42979;DHT22;28616;44.746;19.678;2023-04-09T12:16:35;13.30;69.40
42979;DHT22;28616;44.746;19.678;2023-04-09T12:19:11;13.40;70.70
42979;DHT22;28616;44.746;19.678;2023-04-09T12:21:51;13.30;69.50
42979;DHT22;28616;44.746;19.678;2023-04-09T12:24:23;13.50;70.30
42979;DHT22;28616;44.746;19.678;2023-04-09T12:26:53;13.50;69.50
42979;DHT22;28616;44.746;19.678;2023-04-09T12:29:19;13.50;68.80
42979;DHT22;28616;44.746;19.678;2023-04-09T12:31:53;13.50;70.00
42979;DHT22;28616;44.746;19.678;2023-04-09T12:34:19;13.50;67.00
42979;DHT22;28616;44.746;19.678;2023-04-09T12:36:45;13.50;67.00
42979;DHT22;28616;44.746;19.678;2023-04-09T12:39:10;13.40;65.80
42979;DHT22;28616;44.746;19.678;2023-04-09T12:41:36;13.60;66.10
42979;DHT22;28616;44.746;19.678;2023-04-09T12:44:02;13.60;65.30
42979;DHT22;28616;44.746;19.678;2023-04-09T12:46:29;13.80;65.10
42979;DHT22;28616;44.746;19.678;2023-04-09T12:48:59;13.80;64.40
42979;DHT22;28616;44.746;19.678;2023-04-09T12:51:25;13.90;66.90
42979;DHT22;28616;44.746;19.678;2023-04-09T12:53:51;14.00;66.40
42979;DHT22;28616;44.746;19.678;2023-04-09T12:56:16;13.80;63.90
42979;DHT22;28616;44.746;19.678;2023-04-09T12:58:45;13.70;65.70
42979;DHT22;28616;44.746;19.678;2023-04-09T13:01:11;13.60;66.30
42979;DHT22;28616;44.746;19.678;2023-04-09T13:03:37;13.40;67.70
42979;DHT22;28616;44.746;19.678;2023-04-09T13:06:05;13.30;68.10
42979;DHT22;28616;44.746;19.678;2023-04-09T13:08:31;13.20;69.80
42979;DHT22;28616;44.746;19.678;2023-04-09T13:10:57;13.30;72.20
42979;DHT22;28616;44.746;19.678;2023-04-09T13:13:22;13.10;70.40
42979;DHT22;28616;44.746;19.678;2023-04-09T13:15:49;13.00;70.60
42979;DHT22;28616;44.746;19.678;2023-04-09T13:18:15;13.00;71.60
42979;DHT22;28616;44.746;19.678;2023-04-09T13:20:40;13.00;72.80
42979;DHT22;28616;44.746;19.678;2023-04-09T13:23:06;12.90;72.60
42979;DHT22;28616;44.746;19.678;2023-04-09T13:25:32;12.90;72.50
42979;DHT22;28616;44.746;19.678;2023-04-09T13:27:58;12.80;72.50
42979;DHT22;28616;44.746;19.678;2023-04-09T13:30:23;12.70;72.30
42979;DHT22;28616;44.746;19.678;2023-04-09T13:32:49;12.70;73.20
42979;DHT22;28616;44.746;19.678;2023-04-09T13:35:15;12.60;74.60
42979;DHT22;28616;44.746;19.678;2023-04-09T13:37:41;12.60;73.80
42979;DHT22;28616;44.746;19.678;2023-04-09T13:40:07;12.50;72.90
42979;DHT22;28616;44.746;19.678;2023-04-09T13:42:36;12.30;73.00
42979;DHT22;28616;44.746;19.678;2023-04-09T13:45:02;12.30;73.80
42979;DHT22;28616;44.746;19.678;2023-04-09T13:47:28;12.40;74.80
42979;DHT22;28616;44.746;19.678;2023-04-09T13:49:54;12.30;75.10
42979;DHT22;28616;44.746;19.678;2023-04-09T13:52:20;12.30;75.30
42979;DHT22;28616;44.746;19.678;2023-04-09T13:54:45;12.20;75.90
42979;DHT22;28616;44.746;19.678;2023-04-09T13:57:11;12.20;76.00
42979;DHT22;28616;44.746;19.678;2023-04-09T13:59:37;12.20;76.50
42979;DHT22;28616;44.746;19.678;2023-04-09T14:02:03;12.20;77.00
42979;DHT22;28616;44.746;19.678;2023-04-09T14:04:29;12.30;77.70
42979;DHT22;28616;44.746;19.678;2023-04-09T14:06:58;12.30;77.60
42979;DHT22;28616;44.746;19.678;2023-04-09T14:09:30;12.40;78.20
42979;DHT22;28616;44.746;19.678;2023-04-09T14:11:58;12.40;77.70
42979;DHT22;28616;44.746;19.678;2023-04-09T14:14:24;12.40;77.70
42979;DHT22;28616;44.746;19.678;2023-04-09T14:16:50;12.40;77.60
42979;DHT22;28616;44.746;19.678;2023-04-09T14:19:16;12.40;78.80
42979;DHT22;28616;44.746;19.678;2023-04-09T14:21:41;12.40;78.90
42979;DHT22;28616;44.746;19.678;2023-04-09T14:24:10;12.50;78.40
42979;DHT22;28616;44.746;19.678;2023-04-09T14:26:36;12.50;79.40
42979;DHT22;28616;44.746;19.678;2023-04-09T14:29:02;12.50;80.50
42979;DHT22;28616;44.746;19.678;2023-04-09T14:31:28;12.50;78.80
42979;DHT22;28616;44.746;19.678;2023-04-09T14:33:54;12.50;78.80
42979;DHT22;28616;44.746;19.678;2023-04-09T14:36:19;12.50;78.50
42979;DHT22;28616;44.746;19.678;2023-04-09T14:38:48;12.50;79.00
42979;DHT22;28616;44.746;19.678;2023-04-09T14:41:16;12.50;78.70
42979;DHT22;28616;44.746;19.678;2023-04-09T14:43:41;12.50;79.50
42979;DHT22;28616;44.746;19.678;2023-04-09T14:46:07;12.50;79.10
42979;DHT22;28616;44.746;19.678;2023-04-09T14:48:37;12.60;79.80
42979;DHT22;28616;44.746;19.678;2023-04-09T14:51:07;12.60;79.00
42979;DHT22;28616;44.746;19.678;2023-04-09T14:53:36;12.50;78.50
42979;DHT22;28616;44.746;19.678;2023-04-09T14:56:02;12.40;78.30
42979;DHT22;28616;44.746;19.678;2023-04-09T14:58:31;12.30;78.30
42979;DHT22;28616;44.746;19.678;2023-04-09T15:00:56;12.30;78.40
42979;DHT22;28616;44.746;19.678;2023-04-09T15:03:22;12.30;78.40
42979;DHT22;28616;44.746;19.678;2023-04-09T15:05:48;12.30;78.80
42979;DHT22;28616;44.746;19.678;2023-04-09T15:08:13;12.40;78.60
42979;DHT22;28616;44.746;19.678;2023-04-09T15:10:39;12.40;78.50
42979;DHT22;28616;44.746;19.678;2023-04-09T15:13:05;12.40;80.00
42979;DHT22;28616;44.746;19.678;2023-04-09T15:15:31;12.30;79.20
42979;DHT22;28616;44.746;19.678;2023-04-09T15:17:57;12.30;77.80
42979;DHT22;28616;44.746;19.678;2023-04-09T15:20:24;12.30;78.50
42979;DHT22;28616;44.746;19.678;2023-04-09T15:22:50;12.30;79.30
42979;DHT22;28616;44.746;19.678;2023-04-09T15:25:15;12.30;79.50
42979;DHT22;28616;44.746;19.678;2023-04-09T15:27:44;12.30;79.40
42979;DHT22;28616;44.746;19.678;2023-04-09T15:30:11;12.20;79.30
42979;DHT22;28616;44.746;19.678;2023-04-09T15:32:37;12.20;81.40
42979;DHT22;28616;44.746;19.678;2023-04-09T15:35:02;12.30;82.10
42979;DHT22;28616;44.746;19.678;2023-04-09T15:37:31;12.30;83.90
42979;DHT22;28616;44.746;19.678;2023-04-09T15:39:59;12.20;83.00
42979;DHT22;28616;44.746;19.678;2023-04-09T15:42:25;12.10;83.80
42979;DHT22;28616;44.746;19.678;2023-04-09T15:44:51;12.10;82.50
42979;DHT22;28616;44.746;19.678;2023-04-09T15:47:17;12.00;82.30